Time;durP1;ratioP1;P1;durP2;ratioP2;P2;SDS_P1;SDS_P2;PMS_P1;PMS_P2;Temp;Humidity;BMP_temperature;BMP_pressure;BME280_temperature;BME280_humidity;BME280_pressure;Samples;Min_cycle;Max_cycle;Signal;HPM_P1;HPM_P2
2023/06/28 00:01:58;;;;;;;3.10;1.70;;;15.50;99.90;;;;;;5064818;28;20307;-76
2023/06/28 00:04:25;;;;;;;3.73;1.83;;;15.50;99.90;;;;;;5064193;28;20299;-77
2023/06/28 00:06:52;;;;;;;3.90;1.87;;;15.50;99.90;;;;;;5064257;28;20817;-76
2023/06/28 00:09:19;;;;;;;3.70;2.00;;;15.50;99.90;;;;;;5066749;28;20684;-76
2023/06/28 00:11:46;;;;;;;2.70;1.90;;;15.60;99.90;;;;;;5067771;28;20592;-76
2023/06/28 00:14:12;;;;;;;2.73;1.67;;;15.50;99.90;;;;;;5067574;28;20204;-76
2023/06/28 00:16:39;;;;;;;2.40;1.80;;;15.60;99.90;;;;;;5067871;28;20211;-77
2023/06/28 00:19:08;;;;;;;3.47;1.70;;;15.50;99.90;;;;;;5068097;28;20836;-78
2023/06/28 00:21:34;;;;;;;3.57;2.00;;;15.40;99.90;;;;;;5067882;28;20204;-79
2023/06/28 00:24:01;;;;;;;2.60;1.93;;;15.40;99.90;;;;;;5068450;28;20208;-78
2023/06/28 00:26:28;;;;;;;1.80;1.50;;;15.30;99.90;;;;;;5068322;28;20216;-78
2023/06/28 00:28:55;;;;;;;4.17;2.07;;;15.30;99.90;;;;;;5067897;28;20588;-78
2023/06/28 00:31:22;;;;;;;7.53;1.83;;;15.40;99.90;;;;;;5067806;28;20239;-78
2023/06/28 00:33:49;;;;;;;2.60;1.77;;;15.20;99.90;;;;;;5067881;28;20291;-79
2023/06/28 00:36:17;;;;;;;2.37;1.80;;;15.30;99.90;;;;;;5067673;28;20214;-78
2023/06/28 00:38:44;;;;;;;3.30;2.00;;;15.30;99.90;;;;;;5067820;28;20748;-78
2023/06/28 00:41:11;;;;;;;5.57;1.67;;;15.30;99.90;;;;;;5068079;28;20792;-81
2023/06/28 00:43:38;;;;;;;4.33;1.90;;;15.40;99.90;;;;;;5068040;28;20222;-80
2023/06/28 00:46:05;;;;;;;4.43;2.00;;;15.20;99.90;;;;;;5068145;28;20302;-80
2023/06/28 00:48:32;;;;;;;5.70;2.10;;;15.00;99.90;;;;;;5067769;28;20754;-80
2023/06/28 00:50:59;;;;;;;5.07;1.97;;;15.10;99.90;;;;;;5067470;28;20203;-80
2023/06/28 00:53:28;;;;;;;4.40;2.20;;;15.00;99.90;;;;;;5048175;28;20299;-80
2023/06/28 00:55:56;;;;;;;8.60;2.23;;;14.90;99.90;;;;;;5059103;28;20231;-80
2023/06/28 00:58:23;;;;;;;3.57;1.90;;;14.90;99.90;;;;;;5067765;28;20402;-79
2023/06/28 01:00:49;;;;;;;5.93;2.37;;;14.90;99.90;;;;;;5067531;28;20294;-80
2023/06/28 01:03:18;;;;;;;4.03;1.77;;;14.90;99.90;;;;;;5067212;28;20286;-80
2023/06/28 01:05:46;;;;;;;4.00;2.10;;;15.00;99.90;;;;;;5067679;28;20239;-80
2023/06/28 01:08:14;;;;;;;3.73;2.20;;;15.10;99.90;;;;;;5067080;28;20241;-80
2023/06/28 01:10:44;;;;;;;4.13;2.40;;;15.10;99.90;;;;;;5067387;28;20218;-80
2023/06/28 01:13:11;;;;;;;3.80;2.00;;;15.10;99.90;;;;;;5066894;28;20676;-80
2023/06/28 01:15:38;;;;;;;4.53;2.40;;;15.10;99.90;;;;;;5067139;28;20634;-80
2023/06/28 01:18:05;;;;;;;5.70;2.00;;;15.30;99.90;;;;;;5067187;28;20298;-80
2023/06/28 01:20:32;;;;;;;4.37;2.07;;;15.40;99.90;;;;;;5066355;28;20200;-79
2023/06/28 01:23:02;;;;;;;3.13;2.00;;;15.40;99.90;;;;;;5066931;28;20203;-80
2023/06/28 01:25:29;;;;;;;7.47;2.57;;;15.40;99.90;;;;;;5066697;28;20235;-80
2023/06/28 01:27:56;;;;;;;4.87;2.67;;;15.30;99.90;;;;;;5066819;28;20258;-78
2023/06/28 01:30:25;;;;;;;6.70;2.47;;;15.20;99.90;;;;;;5066931;28;20235;-79
2023/06/28 01:32:52;;;;;;;5.33;2.27;;;15.10;99.90;;;;;;5066664;28;20583;-79
2023/06/28 01:35:19;;;;;;;6.67;2.37;;;15.00;99.90;;;;;;5067037;28;20209;-79
2023/06/28 01:37:47;;;;;;;3.23;2.20;;;15.10;99.90;;;;;;5066215;28;20776;-79
2023/06/28 01:40:17;;;;;;;6.97;2.50;;;15.00;99.90;;;;;;5066258;28;20342;-79
2023/06/28 01:42:44;;;;;;;5.03;2.07;;;15.10;99.90;;;;;;5066619;28;20207;-79
2023/06/28 01:45:12;;;;;;;4.00;2.53;;;15.20;99.90;;;;;;5066210;28;20262;-77
2023/06/28 01:47:39;;;;;;;5.07;2.53;;;14.90;99.90;;;;;;5066171;28;20203;-78
2023/06/28 01:50:08;;;;;;;4.77;2.60;;;15.00;99.90;;;;;;5066295;28;20239;-79
2023/06/28 01:52:34;;;;;;;4.70;2.40;;;14.90;99.90;;;;;;5065977;28;20715;-80
2023/06/28 01:55:01;;;;;;;2.97;2.13;;;14.90;99.90;;;;;;5066494;28;20314;-80
2023/06/28 01:57:30;;;;;;;8.03;2.60;;;14.90;99.90;;;;;;5055971;28;20844;-80
2023/06/28 01:59:56;;;;;;;5.20;2.10;;;14.90;99.90;;;;;;5066386;28;20299;-80
2023/06/28 02:02:23;;;;;;;3.47;2.10;;;14.90;99.90;;;;;;5065614;28;20302;-80
2023/06/28 02:04:50;;;;;;;5.97;2.57;;;14.90;99.90;;;;;;5065767;28;20298;-80
2023/06/28 02:07:17;;;;;;;7.33;2.57;;;14.90;99.90;;;;;;5065585;28;20207;-80
2023/06/28 02:09:44;;;;;;;6.60;2.70;;;14.90;99.90;;;;;;5066234;28;20235;-80
2023/06/28 02:12:11;;;;;;;4.30;2.20;;;14.80;99.90;;;;;;5065927;28;20207;-80
2023/06/28 02:14:40;;;;;;;4.37;2.30;;;14.80;99.90;;;;;;5065959;28;20295;-80
2023/06/28 02:17:13;;;;;;;5.07;2.20;;;14.60;99.90;;;;;;5065875;28;20222;-79
2023/06/28 02:19:41;;;;;;;6.33;2.80;;;14.60;99.90;;;;;;5066288;28;20646;-81
2023/06/28 02:22:08;;;;;;;5.00;2.30;;;14.60;99.90;;;;;;5065403;28;20654;-82
2023/06/28 02:24:35;;;;;;;4.57;2.23;;;14.60;99.90;;;;;;5066147;28;20214;-75
2023/06/28 02:27:02;;;;;;;6.10;1.83;;;14.70;99.90;;;;;;5065874;28;20207;-79
2023/06/28 02:29:29;;;;;;;4.17;2.30;;;14.60;99.90;;;;;;5065326;28;20227;-79
2023/06/28 02:31:58;;;;;;;3.43;2.50;;;14.60;99.90;;;;;;5063976;28;20231;-79
2023/06/28 02:34:24;;;;;;;6.17;2.37;;;14.60;99.90;;;;;;5064459;28;20303;-79
2023/06/28 02:36:51;;;;;;;6.23;2.57;;;14.60;99.90;;;;;;5064048;28;20302;-79
2023/06/28 02:39:18;;;;;;;6.40;2.53;;;14.60;99.90;;;;;;5063839;28;20203;-78
2023/06/28 02:41:45;;;;;;;2.60;2.03;;;14.50;99.90;;;;;;5063731;28;20225;-79
2023/06/28 02:44:12;;;;;;;10.33;2.57;;;14.50;99.90;;;;;;5063721;28;20210;-79
2023/06/28 02:46:39;;;;;;;3.33;2.03;;;14.50;99.90;;;;;;5063673;28;20207;-78
2023/06/28 02:49:08;;;;;;;5.73;2.60;;;14.40;99.90;;;;;;5063851;28;20235;-79
2023/06/28 02:51:35;;;;;;;5.97;2.93;;;14.30;99.90;;;;;;5062487;28;20684;-78
2023/06/28 02:54:02;;;;;;;4.00;2.80;;;14.30;99.90;;;;;;5063417;28;20963;-78
2023/06/28 02:56:29;;;;;;;5.60;2.40;;;14.30;99.90;;;;;;5063507;28;20289;-78
2023/06/28 02:58:56;;;;;;;6.03;2.40;;;14.20;99.90;;;;;;5063684;28;20211;-78
2023/06/28 03:01:24;;;;;;;8.63;2.80;;;14.30;99.90;;;;;;5063208;28;20265;-80
2023/06/28 03:03:51;;;;;;;7.97;2.80;;;14.30;99.90;;;;;;5061744;28;20211;-80
2023/06/28 03:06:19;;;;;;;5.47;2.53;;;14.30;99.90;;;;;;5064826;28;20298;-79
2023/06/28 03:08:46;;;;;;;6.53;2.30;;;14.30;99.90;;;;;;5065194;28;20290;-79
2023/06/28 03:11:13;;;;;;;6.20;2.30;;;14.30;99.90;;;;;;5065303;28;20291;-79
2023/06/28 03:13:40;;;;;;;7.77;3.30;;;14.40;99.90;;;;;;5065454;28;20302;-79
2023/06/28 03:16:08;;;;;;;5.53;2.67;;;14.50;99.90;;;;;;5065380;28;20243;-79
2023/06/28 03:18:35;;;;;;;3.73;2.30;;;14.50;99.90;;;;;;5064745;28;20207;-80
2023/06/28 03:21:02;;;;;;;4.77;2.70;;;14.50;99.90;;;;;;5064726;28;20290;-79
2023/06/28 03:23:30;;;;;;;4.40;2.30;;;14.50;99.90;;;;;;5064891;28;20277;-79
2023/06/28 03:25:57;;;;;;;7.13;2.90;;;14.60;99.90;;;;;;5065146;28;20790;-79
2023/06/28 03:28:23;;;;;;;6.80;2.07;;;14.50;99.90;;;;;;5064861;28;20222;-79
2023/06/28 03:30:50;;;;;;;4.17;2.50;;;14.60;99.90;;;;;;5064695;28;20231;-79
2023/06/28 03:33:17;;;;;;;3.20;2.40;;;14.70;99.90;;;;;;5065015;28;20736;-80
2023/06/28 03:35:44;;;;;;;4.70;2.50;;;14.70;99.90;;;;;;5064581;28;20336;-79
2023/06/28 03:38:11;;;;;;;7.00;2.70;;;14.60;99.90;;;;;;5046189;28;20222;-79
2023/06/28 03:40:39;;;;;;;4.50;2.43;;;14.60;99.90;;;;;;5044517;28;20239;-79
2023/06/28 03:43:06;;;;;;;5.60;2.57;;;14.60;99.90;;;;;;5045465;28;20295;-79
2023/06/28 03:45:33;;;;;;;6.93;2.20;;;14.60;99.90;;;;;;5064470;28;20203;-80
2023/06/28 03:48:00;;;;;;;4.90;2.57;;;14.70;99.90;;;;;;5068314;28;20219;-79
2023/06/28 03:50:27;;;;;;;5.10;2.13;;;14.70;99.90;;;;;;5068654;28;20244;-80
2023/06/28 03:52:54;;;;;;;6.00;2.50;;;14.70;99.90;;;;;;5068452;28;20325;-79
2023/06/28 03:55:21;;;;;;;6.20;2.70;;;14.70;99.90;;;;;;5068459;28;20345;-79
2023/06/28 03:57:49;;;;;;;4.93;2.43;;;14.80;99.90;;;;;;5068363;28;20207;-79
2023/06/28 04:00:17;;;;;;;6.83;2.60;;;14.80;99.90;;;;;;5068462;28;20768;-79
2023/06/28 04:02:44;;;;;;;7.17;2.47;;;14.70;99.90;;;;;;5068816;28;20729;-79
2023/06/28 04:05:11;;;;;;;6.77;2.60;;;14.80;99.90;;;;;;5068944;28;20211;-79
2023/06/28 04:07:38;;;;;;;6.93;2.47;;;14.80;99.90;;;;;;5068463;28;20322;-79
2023/06/28 04:10:06;;;;;;;5.77;2.40;;;14.80;99.90;;;;;;5069016;28;20318;-79
2023/06/28 04:12:33;;;;;;;3.63;2.50;;;14.80;99.90;;;;;;5068452;28;20291;-78
2023/06/28 04:15:02;;;;;;;4.97;2.50;;;14.80;99.90;;;;;;5068195;28;20242;-79
2023/06/28 04:17:29;;;;;;;5.80;2.90;;;14.80;99.90;;;;;;5068176;28;20880;-79
2023/06/28 04:19:56;;;;;;;4.87;2.33;;;14.80;99.90;;;;;;5068288;28;20212;-79
2023/06/28 04:22:23;;;;;;;4.90;2.53;;;14.80;99.90;;;;;;5067640;28;20208;-79
2023/06/28 04:24:50;;;;;;;6.90;2.50;;;14.90;99.90;;;;;;5068040;28;20565;-79
2023/06/28 04:27:17;;;;;;;4.97;2.53;;;14.90;99.90;;;;;;5067659;28;20656;-80
2023/06/28 04:29:44;;;;;;;4.80;2.30;;;14.90;99.90;;;;;;5058065;28;20220;-79
2023/06/28 04:32:23;;;;;;;9.07;2.73;;;14.90;99.90;;;;;;5048432;28;20299;-80
2023/06/28 04:34:52;;;;;;;7.80;2.50;;;15.00;99.90;;;;;;5048277;28;20192;-79
2023/06/28 04:37:19;;;;;;;3.80;2.43;;;14.90;99.90;;;;;;5059273;28;20211;-79
2023/06/28 04:39:46;;;;;;;11.37;3.00;;;14.90;99.90;;;;;;5067427;28;20246;-79
2023/06/28 04:42:14;;;;;;;4.47;2.70;;;14.90;99.90;;;;;;5068153;28;20938;-79
2023/06/28 04:44:41;;;;;;;4.73;2.40;;;15.10;99.90;;;;;;5067124;28;20568;-79
2023/06/28 04:47:08;;;;;;;7.13;2.93;;;15.00;99.90;;;;;;5067373;28;20295;-79
2023/06/28 04:49:37;;;;;;;8.60;2.80;;;15.10;99.90;;;;;;5067594;28;20272;-79
2023/06/28 04:52:04;;;;;;;9.23;2.80;;;15.20;99.90;;;;;;5067664;28;20255;-79
2023/06/28 04:54:31;;;;;;;5.87;2.63;;;15.20;99.90;;;;;;5066546;28;20263;-79
2023/06/28 04:56:58;;;;;;;4.97;2.30;;;15.20;99.90;;;;;;5067044;28;20310;-79
2023/06/28 04:59:25;;;;;;;6.47;2.87;;;15.10;99.90;;;;;;5067260;28;20247;-79
2023/06/28 05:01:52;;;;;;;4.60;2.47;;;15.10;99.90;;;;;;5067344;28;20207;-79
2023/06/28 05:04:19;;;;;;;5.27;2.83;;;15.10;99.90;;;;;;5065748;28;20298;-79
2023/06/28 05:06:47;;;;;;;7.00;2.73;;;15.10;99.90;;;;;;5066479;28;20670;-79
2023/06/28 05:09:14;;;;;;;5.60;2.57;;;15.10;99.90;;;;;;5067264;28;20741;-79
2023/06/28 05:11:41;;;;;;;5.53;2.57;;;15.00;99.90;;;;;;5067234;28;20298;-79
2023/06/28 05:14:07;;;;;;;6.93;2.80;;;15.00;99.90;;;;;;5067584;28;20290;-79
2023/06/28 05:16:34;;;;;;;6.80;2.50;;;14.90;99.90;;;;;;5067160;28;20294;-79
2023/06/28 05:19:01;;;;;;;5.20;2.37;;;14.90;99.90;;;;;;5067189;28;20211;-79
2023/06/28 05:21:28;;;;;;;4.60;2.53;;;14.90;99.90;;;;;;5066746;28;20203;-78
2023/06/28 05:23:56;;;;;;;6.93;3.03;;;14.90;99.90;;;;;;5066995;28;20294;-79
2023/06/28 05:26:23;;;;;;;4.37;2.40;;;14.90;99.90;;;;;;5066491;28;20205;-79
2023/06/28 05:28:50;;;;;;;6.17;2.30;;;14.80;99.90;;;;;;5063863;28;20214;-79
2023/06/28 05:31:17;;;;;;;6.80;2.40;;;14.90;99.90;;;;;;5046319;28;20895;-79
2023/06/28 05:33:44;;;;;;;6.17;2.97;;;14.90;99.90;;;;;;5046579;28;20220;-79
2023/06/28 05:36:11;;;;;;;4.97;2.73;;;15.10;99.90;;;;;;5048583;28;20249;-79
2023/06/28 05:38:38;;;;;;;7.30;2.70;;;15.10;99.90;;;;;;5066690;28;20603;-79
2023/06/28 05:41:15;;;;;;;8.40;2.83;;;15.20;99.90;;;;;;5065800;28;20314;-78
2023/06/28 05:43:43;;;;;;;9.43;2.53;;;15.20;99.90;;;;;;5066551;28;20700;-78
2023/06/28 05:46:10;;;;;;;5.30;2.33;;;15.30;99.90;;;;;;5066342;28;20808;-79
2023/06/28 05:48:37;;;;;;;3.20;2.60;;;15.30;99.90;;;;;;5066221;28;20290;-79
2023/06/28 05:51:09;;;;;;;3.77;2.23;;;15.40;99.90;;;;;;5066248;28;20350;-79
2023/06/28 05:53:37;;;;;;;10.30;3.07;;;15.50;99.90;;;;;;5066245;28;20199;-79
2023/06/28 05:56:04;;;;;;;6.87;2.40;;;15.50;99.90;;;;;;5066222;28;20215;-79
2023/06/28 05:58:32;;;;;;;4.93;2.47;;;15.60;99.90;;;;;;5066422;28;20218;-79
2023/06/28 06:01:00;;;;;;;10.07;2.63;;;15.60;99.90;;;;;;5065899;28;20298;-79
2023/06/28 06:03:27;;;;;;;4.97;2.20;;;15.60;99.90;;;;;;5065850;28;20661;-79
2023/06/28 06:05:54;;;;;;;5.40;2.57;;;15.70;99.90;;;;;;5065837;28;20204;-79
2023/06/28 06:08:23;;;;;;;9.97;2.87;;;15.80;99.90;;;;;;5046292;28;20319;-79
2023/06/28 06:10:50;;;;;;;9.83;2.80;;;15.80;99.90;;;;;;5046126;28;20243;-78
2023/06/28 06:13:17;;;;;;;6.60;2.33;;;15.90;99.90;;;;;;5045917;28;21018;-79
2023/06/28 06:15:45;;;;;;;6.47;2.57;;;16.00;99.90;;;;;;5046373;28;20670;-78
2023/06/28 06:18:12;;;;;;;6.07;2.30;;;16.10;99.90;;;;;;5045889;28;20214;-78
2023/06/28 06:20:39;;;;;;;3.93;2.20;;;16.10;99.90;;;;;;5046327;28;20222;-79
2023/06/28 06:23:06;;;;;;;5.77;2.33;;;16.10;99.90;;;;;;5045886;28;20327;-78
2023/06/28 06:25:33;;;;;;;4.63;2.07;;;16.10;99.90;;;;;;5053726;28;20251;-78
2023/06/28 06:28:00;;;;;;;4.50;2.27;;;16.20;99.90;;;;;;5065807;28;20294;-79
2023/06/28 06:30:27;;;;;;;5.20;2.20;;;16.30;99.90;;;;;;5065311;28;20739;-79
2023/06/28 06:32:55;;;;;;;4.23;2.20;;;16.30;99.90;;;;;;5065997;28;20212;-79
2023/06/28 06:35:22;;;;;;;4.73;2.30;;;16.30;99.90;;;;;;5065456;28;20258;-78
2023/06/28 06:37:49;;;;;;;7.60;2.20;;;16.30;99.90;;;;;;5062999;28;20844;-77
2023/06/28 06:40:16;;;;;;;4.10;1.90;;;16.30;99.90;;;;;;5065136;28;20305;-78
2023/06/28 06:42:43;;;;;;;3.03;2.20;;;16.30;99.90;;;;;;5065223;28;20211;-79
2023/06/28 06:45:10;;;;;;;4.23;2.00;;;16.30;99.90;;;;;;5065463;28;20265;-79
2023/06/28 06:47:39;;;;;;;7.20;2.33;;;16.40;99.90;;;;;;5065574;28;20227;-79
2023/06/28 06:50:09;;;;;;;3.90;1.90;;;16.50;99.90;;;;;;5065522;28;20231;-79
2023/06/28 06:52:36;;;;;;;6.73;2.20;;;16.50;99.90;;;;;;5065609;28;20286;-79
2023/06/28 06:55:03;;;;;;;4.50;1.97;;;16.50;99.90;;;;;;5065902;28;20223;-79
2023/06/28 06:57:30;;;;;;;4.33;2.20;;;16.60;99.90;;;;;;5065718;28;20211;-79
2023/06/28 06:59:57;;;;;;;3.17;2.07;;;16.60;99.90;;;;;;5065993;28;20234;-78
2023/06/28 07:02:23;;;;;;;5.60;1.90;;;16.60;99.90;;;;;;5065438;28;20247;-79
2023/06/28 07:04:50;;;;;;;2.50;1.60;;;16.70;99.90;;;;;;5065697;28;20620;-78
2023/06/28 07:07:19;;;;;;;2.80;1.83;;;16.70;99.90;;;;;;5054133;28;20295;-79
2023/06/28 07:09:46;;;;;;;2.30;2.10;;;16.80;99.90;;;;;;5045517;28;20216;-78
2023/06/28 07:12:12;;;;;;;4.27;2.17;;;16.90;99.90;;;;;;5045193;28;20855;-78
2023/06/28 07:14:39;;;;;;;4.80;2.03;;;17.00;99.90;;;;;;5045193;28;20671;-78
2023/06/28 07:17:07;;;;;;;1.83;1.43;;;17.00;99.90;;;;;;5045544;28;20214;-78
2023/06/28 07:19:33;;;;;;;3.43;2.10;;;17.10;99.90;;;;;;5044466;28;20318;-79
2023/06/28 07:22:00;;;;;;;3.17;1.70;;;17.10;99.90;;;;;;5045068;28;20262;-78
2023/06/28 07:24:29;;;;;;;4.27;1.63;;;17.20;99.90;;;;;;5045602;28;20211;-79
2023/06/28 07:26:55;;;;;;;4.90;2.10;;;17.20;99.90;;;;;;5064433;28;20296;-79
2023/06/28 07:29:24;;;;;;;3.40;1.77;;;17.30;99.90;;;;;;5064985;28;20295;-78
2023/06/28 07:31:51;;;;;;;6.93;1.90;;;17.40;99.90;;;;;;5065303;28;20235;-79
2023/06/28 07:34:18;;;;;;;8.13;1.70;;;17.50;99.90;;;;;;5065147;28;20208;-78
2023/06/28 07:36:45;;;;;;;4.20;1.70;;;17.50;99.90;;;;;;5057896;28;20215;-78
2023/06/28 07:39:12;;;;;;;3.37;1.60;;;17.50;99.90;;;;;;5044726;28;20235;-78
2023/06/28 07:41:40;;;;;;;4.97;1.80;;;17.40;99.90;;;;;;5058091;28;20283;-78
2023/06/28 07:44:07;;;;;;;5.87;1.93;;;17.40;99.90;;;;;;5065090;28;20307;-79
2023/06/28 07:46:34;;;;;;;4.37;2.00;;;17.40;99.90;;;;;;5064784;28;20753;-79
2023/06/28 07:49:01;;;;;;;4.00;1.80;;;17.30;99.90;;;;;;5064922;28;20235;-79
2023/06/28 07:51:28;;;;;;;4.37;1.60;;;17.40;99.90;;;;;;5064394;28;20600;-78
2023/06/28 07:53:54;;;;;;;4.30;2.03;;;17.40;99.90;;;;;;5064917;28;20961;-79
2023/06/28 07:56:22;;;;;;;4.47;1.87;;;17.50;99.90;;;;;;5064619;28;20298;-79
2023/06/28 07:58:50;;;;;;;4.43;1.90;;;17.70;99.90;;;;;;5065174;28;20268;-79
2023/06/28 08:01:17;;;;;;;2.00;1.80;;;17.80;99.90;;;;;;5065145;28;20213;-79
2023/06/28 08:03:45;;;;;;;2.20;1.40;;;18.00;99.90;;;;;;5065084;28;20223;-79
2023/06/28 08:06:12;;;;;;;4.50;1.60;;;18.00;99.90;;;;;;5064741;28;20207;-78
2023/06/28 08:08:39;;;;;;;3.77;1.60;;;18.00;99.90;;;;;;5064377;28;20753;-79
2023/06/28 08:11:05;;;;;;;4.83;1.53;;;18.00;99.90;;;;;;5064564;28;20866;-79
2023/06/28 08:13:32;;;;;;;3.07;1.60;;;18.10;99.90;;;;;;5065125;28;20204;-78
2023/06/28 08:16:01;;;;;;;5.10;1.70;;;18.10;99.90;;;;;;5064500;28;20207;-78
2023/06/28 08:18:28;;;;;;;7.30;1.80;;;18.10;99.90;;;;;;5064496;28;20291;-78
2023/06/28 08:20:54;;;;;;;2.67;1.53;;;18.20;99.90;;;;;;5064655;28;20207;-78
2023/06/28 08:23:21;;;;;;;5.87;1.87;;;18.30;99.90;;;;;;5064326;28;20294;-78
2023/06/28 08:25:48;;;;;;;4.63;1.57;;;18.50;99.90;;;;;;5064592;28;20218;-78
2023/06/28 08:28:15;;;;;;;3.37;1.67;;;18.70;99.90;;;;;;5063992;28;21027;-78
2023/06/28 08:30:42;;;;;;;2.33;1.70;;;18.70;99.90;;;;;;5066588;28;20701;-78
2023/06/28 08:33:12;;;;;;;4.00;1.60;;;18.80;99.90;;;;;;5068265;28;20203;-78
2023/06/28 08:35:39;;;;;;;4.67;1.90;;;18.90;99.90;;;;;;5067890;28;20326;-78
2023/06/28 08:38:06;;;;;;;2.63;1.37;;;19.00;99.90;;;;;;5067640;28;20318;-78
2023/06/28 08:40:33;;;;;;;2.83;1.67;;;18.90;99.90;;;;;;5067408;28;20322;-78
2023/06/28 08:43:01;;;;;;;3.37;1.97;;;19.00;99.90;;;;;;5067897;28;20211;-78
2023/06/28 08:45:31;;;;;;;4.10;1.37;;;19.10;99.90;;;;;;5067763;28;20235;-78
2023/06/28 08:48:00;;;;;;;2.03;1.43;;;19.10;99.90;;;;;;5067607;28;20279;-78
2023/06/28 08:50:28;;;;;;;5.80;1.50;;;19.20;99.90;;;;;;5067891;28;20213;-78
2023/06/28 08:52:56;;;;;;;3.33;1.70;;;19.30;99.90;;;;;;5067595;28;20294;-78
2023/06/28 08:55:24;;;;;;;1.67;1.53;;;19.40;99.90;;;;;;5067989;28;20210;-78
2023/06/28 08:57:51;;;;;;;4.57;1.80;;;19.30;99.90;;;;;;5067881;28;20368;-78
2023/06/28 09:00:19;;;;;;;2.73;1.43;;;19.30;99.90;;;;;;5067641;28;20290;-78
2023/06/28 09:02:46;;;;;;;3.07;1.53;;;19.20;99.90;;;;;;5067702;28;20217;-80
2023/06/28 09:05:13;;;;;;;5.30;1.87;;;19.30;99.90;;;;;;5067338;28;20298;-78
2023/06/28 09:07:48;;;;;;;2.97;1.50;;;19.30;99.90;;;;;;5067529;28;20297;-79
2023/06/28 09:10:24;;;;;;;2.63;1.30;;;19.50;99.90;;;;;;5080632;28;20206;-79
2023/06/28 09:12:51;;;;;;;4.33;1.80;;;19.60;99.90;;;;;;5067090;28;20242;-79
2023/06/28 09:15:20;;;;;;;2.07;1.40;;;19.60;99.90;;;;;;5066905;28;20898;-78
2023/06/28 09:17:47;;;;;;;3.23;1.30;;;19.70;99.90;;;;;;5067565;28;20294;-79
2023/06/28 09:20:17;;;;;;;3.60;1.73;;;19.60;99.90;;;;;;5067459;28;20211;-79
2023/06/28 09:22:55;;;;;;;3.00;1.70;;;19.40;99.90;;;;;;5067178;28;20207;-79
2023/06/28 09:25:22;;;;;;;3.77;1.60;;;19.40;99.90;;;;;;5067050;28;20202;-78
2023/06/28 09:27:49;;;;;;;4.53;2.00;;;19.50;99.90;;;;;;5067133;28;20227;-78
2023/06/28 09:30:18;;;;;;;5.80;1.73;;;19.60;99.90;;;;;;5067203;28;20247;-78
2023/06/28 09:32:50;;;;;;;2.13;1.60;;;19.70;99.90;;;;;;5066886;28;20234;-78
2023/06/28 09:35:17;;;;;;;2.77;1.20;;;19.70;99.90;;;;;;5066947;28;20235;-78
2023/06/28 09:37:50;;;;;;;2.63;1.50;;;19.80;99.90;;;;;;5050874;28;20218;-78
2023/06/28 09:40:18;;;;;;;2.83;1.20;;;19.90;99.90;;;;;;5046823;28;20640;-79
2023/06/28 09:42:45;;;;;;;3.07;1.53;;;20.00;99.90;;;;;;5046614;28;20261;-78
2023/06/28 09:45:27;;;;;;;2.33;1.40;;;20.10;99.90;;;;;;5047212;28;20208;-78
2023/06/28 09:47:58;;;;;;;1.77;1.63;;;19.90;99.90;;;;;;5047217;28;20208;-78
2023/06/28 09:50:37;;;;;;;4.50;1.60;;;19.90;99.90;;;;;;5046847;28;20291;-78
2023/06/28 09:53:07;;;;;;;1.57;1.47;;;19.90;99.90;;;;;;5046316;28;20239;-78
2023/06/28 09:55:34;;;;;;;3.17;1.50;;;19.90;99.90;;;;;;5054959;28;20527;-78
2023/06/28 09:58:02;;;;;;;2.53;1.60;;;20.00;99.90;;;;;;5066286;28;20322;-78
2023/06/28 10:00:31;;;;;;;2.77;1.73;;;20.10;99.90;;;;;;5066643;28;20584;-77
2023/06/28 10:03:02;;;;;;;3.60;1.70;;;20.20;99.90;;;;;;5066548;28;20215;-78
2023/06/28 10:05:29;;;;;;;1.67;1.40;;;20.20;99.90;;;;;;5066246;28;20200;-78
2023/06/28 10:07:56;;;;;;;4.87;1.53;;;20.50;99.90;;;;;;5066170;28;20215;-78
2023/06/28 10:10:25;;;;;;;5.10;1.70;;;20.60;99.90;;;;;;5066172;28;20260;-79
2023/06/28 10:12:53;;;;;;;3.27;1.60;;;20.70;99.90;;;;;;5066442;28;20615;-78
2023/06/28 10:15:24;;;;;;;2.63;1.53;;;20.60;99.90;;;;;;5066022;28;20203;-78
2023/06/28 10:17:51;;;;;;;3.90;1.60;;;20.70;99.90;;;;;;5066654;28;20196;-78
2023/06/28 10:20:19;;;;;;;3.13;1.30;;;20.70;99.90;;;;;;5066521;28;20199;-78
2023/06/28 10:22:46;;;;;;;3.47;1.30;;;20.90;99.90;;;;;;5065477;28;20306;-78
2023/06/28 10:25:14;;;;;;;2.77;1.60;;;21.00;99.90;;;;;;5065999;28;20298;-78
2023/06/28 10:27:43;;;;;;;3.03;1.33;;;21.10;99.90;;;;;;5065951;28;20232;-78
2023/06/28 10:30:13;;;;;;;3.10;1.60;;;21.10;99.90;;;;;;5055205;28;20724;-78
2023/06/28 10:32:41;;;;;;;2.57;1.37;;;21.00;99.90;;;;;;5046314;28;20302;-78
2023/06/28 10:35:09;;;;;;;4.90;1.90;;;21.00;99.90;;;;;;5045914;28;20212;-78
2023/06/28 10:37:36;;;;;;;2.93;1.63;;;21.10;99.90;;;;;;5060246;28;20208;-78
2023/06/28 10:40:05;;;;;;;2.28;1.38;;;21.20;99.90;;;;;;5065541;28;20350;-78
2023/06/28 10:42:39;;;;;;;3.47;1.60;;;21.30;99.90;;;;;;5065566;28;20670;-78
2023/06/28 10:45:09;;;;;;;3.25;1.50;;;21.50;99.90;;;;;;5065587;28;20650;-78
2023/06/28 10:47:37;;;;;;;3.03;1.63;;;21.70;99.90;;;;;;5065974;28;20217;-78
2023/06/28 10:50:09;;;;;;;3.67;1.45;;;21.90;99.90;;;;;;5065674;28;20670;-78
2023/06/28 10:52:37;;;;;;;3.03;1.40;;;21.90;99.90;;;;;;5065243;28;20254;-78
2023/06/28 10:55:11;;;;;;;3.03;1.40;;;21.80;99.90;;;;;;5065539;28;20978;-80
2023/06/28 10:57:39;;;;;;;3.08;1.42;;;21.60;99.90;;;;;;5065729;28;20598;-78
2023/06/28 11:00:29;;;;;;;3.25;1.42;;;21.70;99.90;;;;;;5065620;28;20207;-78
2023/06/28 11:03:03;;;;;;;3.42;1.58;;;21.80;99.90;;;;;;5065414;28;20218;-79
2023/06/28 11:05:53;;;;;;;2.37;1.60;;;21.80;99.90;;;;;;5065116;28;20190;-79
2023/06/28 11:08:21;;;;;;;1.85;1.65;;;22.00;99.90;;;;;;5065282;28;20207;-78
2023/06/28 11:10:49;;;;;;;3.35;1.38;;;22.10;99.90;;;;;;5065144;28;20302;-78
2023/06/28 11:13:32;;;;;;;2.58;1.30;;;22.40;99.90;;;;;;5065359;28;20269;-79
2023/06/28 11:16:08;;;;;;;3.63;1.60;;;22.60;99.90;;;;;;5065467;28;20195;-78
2023/06/28 11:18:36;;;;;;;2.42;1.60;;;22.50;99.90;;;;;;5065360;28;20226;-78
2023/06/28 11:21:03;;;;;;;6.50;1.77;;;22.40;99.90;;;;;;5065254;28;20297;-78
2023/06/28 11:23:35;;;;;;;2.30;1.63;;;22.30;99.90;;;;;;5065424;28;20298;-78
2023/06/28 11:26:03;;;;;;;3.83;1.67;;;22.30;99.90;;;;;;5065352;28;20286;-78
2023/06/28 11:28:31;;;;;;;3.40;1.60;;;22.20;99.90;;;;;;5064892;28;20213;-78
2023/06/28 11:31:17;;;;;;;1.52;1.30;;;22.40;99.90;;;;;;5065318;28;20211;-79
2023/06/28 11:33:44;;;;;;;2.17;1.20;;;22.50;99.90;;;;;;5065099;28;20235;-78
2023/06/28 11:36:12;;;;;;;4.32;1.38;;;22.50;99.90;;;;;;5065027;28;20242;-78
2023/06/28 11:38:43;;;;;;;4.78;1.65;;;22.50;99.90;;;;;;5064946;28;20294;-78
2023/06/28 11:41:10;;;;;;;6.82;1.77;;;22.40;99.90;;;;;;5064769;28;20267;-78
2023/06/28 11:47:00;;;;;;;1.92;1.30;;;22.30;99.90;;;;;;5065334;28;20233;-78
2023/06/28 11:49:27;;;;;;;2.58;1.35;;;22.20;99.90;;;;;;5065412;28;20209;-78
2023/06/28 11:51:54;;;;;;;3.70;1.58;;;22.20;99.90;;;;;;5064965;28;20258;-78
2023/06/28 11:54:21;;;;;;;4.57;1.50;;;22.30;99.90;;;;;;5065287;28;20255;-79
2023/06/28 11:56:49;;;;;;;3.70;1.70;;;22.10;99.90;;;;;;5064830;28;20364;-78
2023/06/28 11:59:17;;;;;;;2.58;1.40;;;22.00;99.90;;;;;;5064812;28;20211;-78
2023/06/28 12:01:44;;;;;;;3.23;1.40;;;22.00;99.90;;;;;;5064979;28;20215;-78
2023/06/28 12:04:17;;;;;;;2.03;1.48;;;22.20;99.90;;;;;;5065777;28;20229;-78
2023/06/28 12:06:45;;;;;;;1.77;1.50;;;22.70;99.90;;;;;;5068787;28;20287;-78
2023/06/28 12:09:20;;;;;;;1.43;1.30;;;22.70;99.90;;;;;;5068856;28;20326;-79
2023/06/28 12:11:52;;;;;;;3.00;1.50;;;22.70;99.90;;;;;;5068984;28;20231;-78
2023/06/28 12:14:20;;;;;;;2.78;1.40;;;22.70;99.90;;;;;;5068315;28;20208;-79
2023/06/28 12:16:47;;;;;;;4.13;1.60;;;22.80;99.90;;;;;;5068815;28;20207;-78
2023/06/28 12:19:17;;;;;;;2.20;1.27;;;22.70;99.90;;;;;;5069006;28;20211;-78
2023/06/28 12:21:44;;;;;;;2.08;1.52;;;22.70;99.90;;;;;;5068638;28;20211;-79
2023/06/28 12:24:12;;;;;;;3.92;1.50;;;22.70;99.90;;;;;;5068598;28;20213;-78
2023/06/28 12:26:39;;;;;;;3.13;1.40;;;23.00;99.90;;;;;;5068431;28;20603;-78
2023/06/28 12:29:07;;;;;;;1.80;1.60;;;23.20;99.90;;;;;;5064883;28;20226;-79
2023/06/28 12:31:41;;;;;;;4.30;1.65;;;23.10;99.90;;;;;;5048137;28;20222;-78
2023/06/28 12:34:08;;;;;;;1.60;1.48;;;23.10;99.90;;;;;;5048581;28;20615;-78
2023/06/28 12:36:39;;;;;;;3.17;1.58;;;22.90;99.90;;;;;;5053504;28;20290;-78
2023/06/28 12:39:05;;;;;;;1.80;1.45;;;22.60;99.90;;;;;;5068390;28;20261;-78
2023/06/28 12:41:32;;;;;;;1.42;1.25;;;22.90;99.90;;;;;;5067888;28;20298;-78
2023/06/28 12:43:59;;;;;;;2.10;1.63;;;23.00;99.90;;;;;;5067973;28;20570;-78
2023/06/28 12:46:28;;;;;;;3.33;1.27;;;23.20;99.90;;;;;;5067730;28;20299;-78
2023/06/28 12:48:55;;;;;;;3.72;1.55;;;23.20;99.90;;;;;;5068116;28;20234;-78
2023/06/28 12:51:23;;;;;;;3.92;1.52;;;23.30;99.90;;;;;;5067407;28;20207;-78
2023/06/28 12:53:52;;;;;;;4.00;1.40;;;23.80;99.90;;;;;;5067819;28;20720;-79